createdAt,value
2023-01-23T00:00:15.511Z,1.85
2023-01-23T00:02:43.513Z,1.67
2023-01-23T00:05:16.000Z,1.47
2023-01-23T00:07:43.975Z,1.58
2023-01-23T00:10:12.856Z,1.55
2023-01-23T00:12:42.911Z,1.87
2023-01-23T00:15:12.071Z,2.04
2023-01-23T00:17:41.301Z,2.07
2023-01-23T00:20:10.695Z,1.91
2023-01-23T00:22:39.916Z,2.05
2023-01-23T00:25:08.277Z,2.08
2023-01-23T00:27:36.252Z,2.02
2023-01-23T00:30:05.053Z,2.27
2023-01-23T00:32:32.996Z,2.19
2023-01-23T00:35:04.102Z,2.31
2023-01-23T00:37:32.012Z,2.31
2023-01-23T00:40:01.449Z,2.35
2023-01-23T00:42:29.326Z,2.22
2023-01-23T00:45:00.873Z,2.29
2023-01-23T00:47:28.808Z,2.11
2023-01-23T00:49:57.651Z,2.30
2023-01-23T00:52:26.172Z,2.26
2023-01-23T00:54:55.103Z,1.91
2023-01-23T00:57:24.411Z,1.87
2023-01-23T00:59:52.241Z,2.04
2023-01-23T01:02:20.111Z,1.98
2023-01-23T01:04:48.041Z,1.69
2023-01-23T01:07:15.758Z,1.96
2023-01-23T01:09:43.608Z,1.99
2023-01-23T01:12:11.432Z,2.13
2023-01-23T01:14:40.707Z,1.87
2023-01-23T01:17:08.577Z,2.06
2023-01-23T01:19:36.471Z,2.31
2023-01-23T01:22:04.459Z,2.47
2023-01-23T01:24:32.353Z,2.54
2023-01-23T01:27:00.151Z,2.57
2023-01-23T01:29:28.240Z,2.51
2023-01-23T01:31:57.443Z,2.48
2023-01-23T01:34:25.338Z,2.41
2023-01-23T01:36:53.575Z,2.36
2023-01-23T01:39:21.531Z,2.38
2023-01-23T01:41:49.349Z,2.48
2023-01-23T01:44:19.164Z,2.29
2023-01-23T01:46:49.062Z,2.41
2023-01-23T01:49:22.163Z,2.37
2023-01-23T01:51:54.368Z,2.28
2023-01-23T01:54:28.404Z,2.14
2023-01-23T01:57:01.885Z,2.05
2023-01-23T01:59:33.286Z,2.23
2023-01-23T02:02:06.288Z,2.24
2023-01-23T02:04:38.134Z,2.00
2023-01-23T02:07:12.517Z,2.00
2023-01-23T02:09:41.975Z,2.02
2023-01-23T02:12:11.945Z,2.12
2023-01-23T02:14:41.971Z,2.10
2023-01-23T02:17:10.901Z,2.17
2023-01-23T02:19:49.213Z,1.82
2023-01-23T02:22:29.864Z,1.88
2023-01-23T02:25:04.349Z,2.00
2023-01-23T02:27:33.569Z,2.02
2023-01-23T02:30:01.474Z,2.23
2023-01-23T02:32:32.235Z,2.01
2023-01-23T02:35:03.742Z,2.29
2023-01-23T02:37:35.566Z,1.98
2023-01-23T02:40:04.844Z,1.94
2023-01-23T02:42:39.091Z,1.56
2023-01-23T02:45:10.078Z,1.53
2023-01-23T02:47:37.864Z,1.51
2023-01-23T02:50:06.525Z,1.89
2023-01-23T02:52:36.642Z,1.53
2023-01-23T02:55:06.259Z,1.54
2023-01-23T02:57:37.807Z,1.65
2023-01-23T03:00:20.261Z,1.62
2023-01-23T03:02:49.489Z,1.75
2023-01-23T03:05:18.044Z,1.93
2023-01-23T03:07:45.908Z,1.94
2023-01-23T03:10:13.790Z,1.86
2023-01-23T03:12:45.917Z,1.69
2023-01-23T03:15:16.637Z,1.58
2023-01-23T03:17:44.420Z,1.65
2023-01-23T03:20:14.773Z,1.52
2023-01-23T03:22:43.094Z,1.48
2023-01-23T03:25:13.141Z,1.44
2023-01-23T03:27:43.245Z,1.87
2023-01-23T03:30:13.934Z,2.02
2023-01-23T03:32:42.049Z,1.91
2023-01-23T03:35:14.010Z,1.85
2023-01-23T03:37:42.407Z,1.59
2023-01-23T03:40:33.966Z,1.81
2023-01-23T03:43:02.187Z,1.55
2023-01-23T03:45:32.039Z,1.62
2023-01-23T03:47:59.992Z,1.59
2023-01-23T03:50:27.953Z,1.50
2023-01-23T03:52:55.977Z,1.68
2023-01-23T03:55:23.850Z,1.32
2023-01-23T03:57:52.043Z,1.74
2023-01-23T04:00:20.883Z,1.79
2023-01-23T04:02:57.614Z,1.71
2023-01-23T04:05:25.804Z,1.75
2023-01-23T04:07:53.656Z,1.83
2023-01-23T04:10:21.859Z,1.82
2023-01-23T04:12:54.809Z,1.86
2023-01-23T04:15:23.735Z,2.03
2023-01-23T04:17:53.768Z,2.12
2023-01-23T04:20:25.608Z,1.53
2023-01-23T04:22:54.625Z,1.32
2023-01-23T04:25:23.979Z,1.24
2023-01-23T04:27:51.964Z,1.21
2023-01-23T04:30:20.265Z,1.62
2023-01-23T04:32:48.395Z,1.63
2023-01-23T04:35:19.193Z,1.47
2023-01-23T04:37:48.548Z,1.38
2023-01-23T04:40:17.848Z,1.29
2023-01-23T04:42:58.373Z,1.26
2023-01-23T04:45:46.921Z,1.18
2023-01-23T04:48:33.164Z,1.39
2023-01-23T04:51:01.039Z,1.69
2023-01-23T04:53:30.616Z,1.58
2023-01-23T04:56:02.545Z,1.41
2023-01-23T04:58:31.096Z,1.51
2023-01-23T05:01:05.842Z,1.32
2023-01-23T05:03:36.058Z,1.44
2023-01-23T05:06:04.489Z,1.62
2023-01-23T05:08:33.837Z,1.54
2023-01-23T05:11:18.314Z,1.50
2023-01-23T05:13:46.347Z,1.65
2023-01-23T05:16:17.490Z,1.49
2023-01-23T05:19:17.671Z,1.73
2023-01-23T05:21:46.294Z,1.67
2023-01-23T05:24:22.052Z,1.62
2023-01-23T05:26:50.883Z,1.64
2023-01-23T05:29:20.363Z,1.54
2023-01-23T05:32:11.191Z,1.66
2023-01-23T05:34:39.202Z,1.71
2023-01-23T05:37:25.498Z,1.77
2023-01-23T05:39:58.626Z,1.79
2023-01-23T05:42:31.158Z,2.12
2023-01-23T05:45:04.169Z,2.19
2023-01-23T05:47:39.261Z,1.71
2023-01-23T05:50:09.809Z,1.95
2023-01-23T05:52:38.769Z,1.91
2023-01-23T05:55:09.343Z,1.98
2023-01-23T05:57:40.292Z,1.78
2023-01-23T06:00:31.297Z,1.66
2023-01-23T06:03:20.044Z,1.71
2023-01-23T06:06:02.920Z,2.03
2023-01-23T06:08:30.957Z,2.16
2023-01-23T06:11:00.621Z,2.27
2023-01-23T06:13:28.993Z,2.31
2023-01-23T06:15:57.669Z,2.02
2023-01-23T06:18:26.947Z,2.19
2023-01-23T06:20:59.482Z,2.30
2023-01-23T06:23:27.553Z,2.29
2023-01-23T06:25:55.629Z,2.36
2023-01-23T06:28:25.283Z,1.99
2023-01-23T06:30:53.742Z,1.98
2023-01-23T06:33:32.390Z,2.08
2023-01-23T06:36:00.803Z,1.68
2023-01-23T06:38:29.520Z,1.47
2023-01-23T06:40:59.310Z,1.84
2023-01-23T06:43:36.059Z,1.77
2023-01-23T06:46:04.778Z,2.24
2023-01-23T06:48:33.214Z,2.37
2023-01-23T06:51:01.282Z,2.03
2023-01-23T06:53:29.788Z,2.11
2023-01-23T06:56:01.136Z,2.17
2023-01-23T06:58:30.840Z,2.00
2023-01-23T07:01:00.844Z,2.03
2023-01-23T07:04:08.990Z,2.19
2023-01-23T07:06:38.102Z,2.45
2023-01-23T07:09:06.035Z,2.09
2023-01-23T07:11:37.335Z,2.05
2023-01-23T07:14:06.863Z,2.14
2023-01-23T07:16:37.196Z,1.82
2023-01-23T07:19:07.634Z,2.00
2023-01-23T07:21:38.734Z,1.90
2023-01-23T07:24:09.723Z,1.58
2023-01-23T07:26:37.739Z,1.47
2023-01-23T07:29:07.170Z,1.58
2023-01-23T07:31:35.098Z,1.89
2023-01-23T07:34:04.490Z,2.01
2023-01-23T07:36:32.441Z,1.60
2023-01-23T07:39:00.273Z,1.94
2023-01-23T07:41:28.128Z,1.95
2023-01-23T07:43:55.971Z,1.91
2023-01-23T07:46:26.835Z,1.89
2023-01-23T07:48:56.281Z,1.62
2023-01-23T07:51:25.642Z,1.60
2023-01-23T07:53:53.750Z,1.87
2023-01-23T07:56:21.620Z,2.00
2023-01-23T07:58:51.078Z,2.36
2023-01-23T08:01:19.700Z,2.24
2023-01-23T08:03:48.953Z,2.04
2023-01-23T08:06:16.967Z,1.46
2023-01-23T08:08:48.906Z,1.35
2023-01-23T08:11:17.005Z,1.39
2023-01-23T08:13:44.840Z,1.40
2023-01-23T08:16:13.736Z,1.48
2023-01-23T08:18:41.748Z,1.56
2023-01-23T08:21:12.629Z,1.57
2023-01-23T08:23:41.996Z,1.54
2023-01-23T08:26:14.545Z,1.46
2023-01-23T08:28:42.742Z,1.52
2023-01-23T08:31:12.932Z,1.57
2023-01-23T08:33:41.458Z,1.68
2023-01-23T08:36:13.022Z,1.72
2023-01-23T08:38:40.970Z,1.44
2023-01-23T08:41:11.754Z,1.45
2023-01-23T08:43:41.762Z,1.47
2023-01-23T08:46:10.406Z,1.46
2023-01-23T08:48:40.619Z,1.49
2023-01-23T08:51:10.584Z,1.59
2023-01-23T08:53:38.538Z,1.63
2023-01-23T08:56:08.613Z,1.60
2023-01-23T08:58:36.499Z,1.89
2023-01-23T09:01:06.021Z,1.98
2023-01-23T09:03:34.086Z,2.09
2023-01-23T09:06:02.753Z,1.72
2023-01-23T09:08:30.831Z,1.91
2023-01-23T09:11:01.441Z,1.94
2023-01-23T09:13:29.519Z,1.92
2023-01-23T09:15:57.507Z,1.85
2023-01-23T09:18:27.503Z,2.04
2023-01-23T09:20:56.222Z,2.02
2023-01-23T09:23:25.281Z,2.21
2023-01-23T09:25:53.294Z,2.24
2023-01-23T09:28:21.371Z,2.12
2023-01-23T09:30:51.598Z,2.22
2023-01-23T09:33:24.694Z,2.27
2023-01-23T09:35:54.743Z,2.03
2023-01-23T09:38:22.626Z,2.33
2023-01-23T09:40:53.316Z,2.17
2023-01-23T09:43:26.633Z,2.08
2023-01-23T09:46:02.817Z,1.97
2023-01-23T09:48:40.600Z,1.85
2023-01-23T09:51:16.681Z,2.03
2023-01-23T09:53:44.656Z,1.79
2023-01-23T09:56:23.365Z,2.06
2023-01-23T09:59:03.620Z,2.15
2023-01-23T10:01:32.739Z,1.98
2023-01-23T10:04:02.100Z,2.21
2023-01-23T10:06:34.636Z,1.99
2023-01-23T10:09:21.772Z,2.04
2023-01-23T10:12:00.316Z,2.13
2023-01-23T10:14:48.854Z,1.97
2023-01-23T10:17:23.558Z,1.97
2023-01-23T10:20:15.122Z,2.08
2023-01-23T10:22:51.194Z,2.21
2023-01-23T10:25:23.488Z,2.37
2023-01-23T10:27:53.304Z,2.09
2023-01-23T10:30:29.614Z,2.26
2023-01-23T10:32:59.332Z,2.49
2023-01-23T10:35:37.206Z,2.37
2023-01-23T10:38:17.797Z,2.66
2023-01-23T10:41:06.113Z,2.84
2023-01-23T10:43:33.969Z,2.31
2023-01-23T10:46:02.260Z,2.48
2023-01-23T10:48:41.132Z,2.33
2023-01-23T10:51:35.693Z,2.58
2023-01-23T10:54:29.582Z,2.01
2023-01-23T10:57:01.035Z,2.25
2023-01-23T10:59:38.373Z,2.51
2023-01-23T11:02:22.127Z,2.53
2023-01-23T11:04:52.439Z,2.74
2023-01-23T11:07:22.451Z,2.20
2023-01-23T11:09:55.544Z,2.05
2023-01-23T11:12:25.591Z,2.10
2023-01-23T11:15:12.962Z,2.21
2023-01-23T11:17:43.152Z,2.47
2023-01-23T11:20:25.964Z,2.38
2023-01-23T11:23:16.459Z,2.30
2023-01-23T11:25:48.135Z,2.20
2023-01-23T11:28:23.568Z,2.12
2023-01-23T11:31:11.640Z,2.68
2023-01-23T11:33:47.840Z,2.57
2023-01-23T11:36:42.198Z,2.30
2023-01-23T11:39:19.718Z,2.28
2023-01-23T11:41:51.561Z,2.64
2023-01-23T11:44:23.071Z,2.55
2023-01-23T11:47:20.309Z,2.37
2023-01-23T11:50:10.819Z,2.13
2023-01-23T11:52:50.139Z,2.09
2023-01-23T11:55:51.576Z,2.13
2023-01-23T11:58:49.952Z,2.06
2023-01-23T12:01:23.318Z,2.51
2023-01-23T12:04:26.776Z,2.25
2023-01-23T12:07:06.544Z,2.62
2023-01-23T12:09:45.729Z,2.33
2023-01-23T12:12:24.367Z,2.50
2023-01-23T12:15:03.141Z,2.48
2023-01-23T12:17:41.979Z,2.56
2023-01-23T12:20:42.686Z,2.44
2023-01-23T12:23:23.965Z,2.22
2023-01-23T12:26:02.019Z,2.48
2023-01-23T12:28:50.286Z,2.66
2023-01-23T12:31:36.801Z,2.75
2023-01-23T12:34:19.254Z,2.90
2023-01-23T12:37:12.153Z,2.73
2023-01-23T12:39:56.496Z,2.93
2023-01-23T12:42:29.509Z,3.18
2023-01-23T12:45:02.502Z,3.20
2023-01-23T12:47:37.756Z,3.27
2023-01-23T12:50:18.664Z,3.08
2023-01-23T12:52:54.182Z,3.13
2023-01-23T12:55:25.290Z,2.99
2023-01-23T12:58:00.126Z,2.89
2023-01-23T13:01:02.601Z,3.05
2023-01-23T13:03:56.341Z,2.96
2023-01-23T13:06:51.750Z,3.01
2023-01-23T13:09:29.570Z,3.32
2023-01-23T13:12:06.016Z,3.11
2023-01-23T13:17:41.267Z,3.10
2023-01-23T13:20:41.731Z,3.53
2023-01-23T13:23:37.123Z,3.26
2023-01-23T13:26:29.271Z,3.21
2023-01-23T13:29:02.510Z,3.42
2023-01-23T13:31:45.375Z,3.21
2023-01-23T13:34:38.567Z,3.16
2023-01-23T13:37:53.134Z,2.91
2023-01-23T13:40:24.915Z,3.22
2023-01-23T13:42:52.921Z,3.16
2023-01-23T13:45:34.427Z,3.44
2023-01-23T14:20:47.729Z,3.41
2023-01-23T14:23:30.676Z,3.43
2023-01-23T14:25:58.853Z,3.30
2023-01-23T14:28:27.434Z,3.26
2023-01-23T14:30:59.176Z,3.24
2023-01-23T14:33:28.096Z,3.35
2023-01-23T14:35:57.284Z,3.18
2023-01-23T14:38:34.608Z,3.32
2023-01-23T14:41:07.880Z,3.11
2023-01-23T14:43:37.303Z,3.18
2023-01-23T14:46:15.860Z,3.04
2023-01-23T14:48:52.528Z,3.16
2023-01-23T14:51:28.258Z,3.13
2023-01-23T14:54:00.866Z,3.26
2023-01-23T14:56:32.722Z,3.26
2023-01-23T14:59:04.657Z,3.14
2023-01-23T15:01:36.115Z,3.16
2023-01-23T15:04:06.277Z,3.30
2023-01-23T15:06:37.704Z,3.40
2023-01-23T15:09:10.247Z,3.18
2023-01-23T15:11:38.954Z,3.26
2023-01-23T15:14:07.951Z,3.03
2023-01-23T15:16:38.951Z,3.07
2023-01-23T15:19:19.013Z,3.18
2023-01-23T15:21:47.181Z,2.78
2023-01-23T15:24:28.464Z,2.84
2023-01-23T15:27:06.360Z,2.93
2023-01-23T15:29:35.139Z,2.95
2023-01-23T15:32:16.830Z,3.15
2023-01-23T15:34:54.154Z,3.22
2023-01-23T15:37:24.756Z,2.97
2023-01-23T15:39:55.237Z,2.86
2023-01-23T15:42:27.743Z,2.96
2023-01-23T15:44:55.989Z,3.17
2023-01-23T15:47:27.374Z,3.06
2023-01-23T15:49:55.400Z,2.93
2023-01-23T15:52:25.898Z,2.97
2023-01-23T15:54:56.047Z,2.97
2023-01-23T15:57:24.134Z,3.14
2023-01-23T15:59:52.210Z,2.85
2023-01-23T16:02:30.601Z,2.91
2023-01-23T16:05:03.363Z,2.99
2023-01-23T16:07:34.567Z,2.94
2023-01-23T16:10:05.609Z,2.85
2023-01-23T16:12:35.485Z,3.10
2023-01-23T16:15:03.509Z,2.96
2023-01-23T16:17:31.411Z,3.24
2023-01-23T16:19:59.577Z,3.12
2023-01-23T16:22:29.860Z,3.19
2023-01-23T16:24:58.813Z,3.10
2023-01-23T16:27:27.660Z,3.27
2023-01-23T16:29:56.447Z,3.24
2023-01-23T16:32:25.053Z,3.23
2023-01-23T16:34:53.324Z,3.06
2023-01-23T16:37:21.473Z,3.03
2023-01-23T16:39:50.769Z,2.85
2023-01-23T16:42:22.332Z,2.87
2023-01-23T16:44:50.535Z,2.78
2023-01-23T16:47:18.600Z,2.92
2023-01-23T16:49:52.577Z,2.80
2023-01-23T16:52:22.436Z,2.94
2023-01-23T16:54:55.541Z,2.76
2023-01-23T16:57:24.900Z,2.72
2023-01-23T16:59:56.248Z,2.73
2023-01-23T17:02:30.272Z,2.77
2023-01-23T17:05:00.372Z,2.73
2023-01-23T17:07:28.260Z,2.81
2023-01-23T17:09:57.607Z,2.93
2023-01-23T17:12:29.424Z,2.96
2023-01-23T17:14:58.241Z,2.91
2023-01-23T17:17:30.468Z,2.96
2023-01-23T17:19:58.749Z,3.00
2023-01-23T17:22:30.445Z,3.07
2023-01-23T17:24:59.832Z,2.99
2023-01-23T17:27:27.802Z,3.07
2023-01-23T17:29:55.813Z,2.85
2023-01-23T17:32:32.102Z,3.03
2023-01-23T17:35:03.590Z,2.87
2023-01-23T17:37:37.856Z,2.82
2023-01-23T17:40:11.084Z,2.92
2023-01-23T17:42:38.989Z,2.97
2023-01-23T17:45:07.631Z,3.00
2023-01-23T17:47:36.059Z,3.14
2023-01-23T17:50:04.682Z,3.09
2023-01-23T17:52:32.549Z,2.85
2023-01-23T17:55:00.372Z,2.79
2023-01-23T17:57:29.523Z,2.80
2023-01-23T17:59:57.391Z,2.90
2023-01-23T18:02:28.764Z,2.97
2023-01-23T18:04:57.004Z,2.93
2023-01-23T18:07:24.976Z,2.95
2023-01-23T18:09:55.457Z,2.95
2023-01-23T18:12:37.273Z,3.02
2023-01-23T18:15:12.843Z,3.05
2023-01-23T18:17:49.798Z,2.98
2023-01-23T18:20:20.446Z,2.97
2023-01-23T18:22:49.023Z,3.22
2023-01-23T18:25:18.906Z,3.24
2023-01-23T18:27:53.746Z,3.24
2023-01-23T18:30:37.797Z,3.33
2023-01-23T18:33:18.390Z,3.34
2023-01-23T18:36:20.390Z,3.18
2023-01-23T18:39:11.494Z,3.10
2023-01-23T18:42:04.154Z,2.89
2023-01-23T18:44:34.779Z,3.05
2023-01-23T18:47:05.721Z,2.89
2023-01-23T18:49:34.498Z,2.91
2023-01-23T18:52:10.722Z,2.83
2023-01-23T18:54:43.139Z,2.95
2023-01-23T18:57:33.302Z,3.00
2023-01-23T19:00:12.731Z,2.96
2023-01-23T19:02:49.249Z,3.10
2023-01-23T19:05:30.184Z,3.15
2023-01-23T19:07:59.871Z,3.10
2023-01-23T19:10:32.521Z,3.07
2023-01-23T19:13:14.710Z,2.99
2023-01-23T19:15:51.755Z,3.04
2023-01-23T19:18:40.695Z,3.17
2023-01-23T19:21:16.055Z,2.93
2023-01-23T19:23:50.065Z,2.78
2023-01-23T19:26:20.409Z,2.92
2023-01-23T19:28:49.000Z,2.96
2023-01-23T19:31:22.434Z,3.20
2023-01-23T19:33:50.856Z,3.30
2023-01-23T19:36:18.910Z,3.10
2023-01-23T19:38:46.870Z,3.19
2023-01-23T19:41:20.585Z,3.19
2023-01-23T19:43:50.549Z,3.29
2023-01-23T19:46:20.527Z,3.35
2023-01-23T19:48:48.798Z,3.17
2023-01-23T19:51:19.089Z,3.15
2023-01-23T19:53:47.579Z,3.20
2023-01-23T19:56:18.291Z,3.21
2023-01-23T19:58:47.288Z,3.29
2023-01-23T20:01:28.799Z,3.32
2023-01-23T20:03:56.836Z,3.33
2023-01-23T20:06:24.818Z,3.21
2023-01-23T20:08:52.661Z,3.51
2023-01-23T20:11:20.697Z,3.29
2023-01-23T20:13:48.742Z,3.25
2023-01-23T20:16:21.118Z,3.44
2023-01-23T20:18:50.952Z,3.49
2023-01-23T20:21:20.612Z,3.40
2023-01-23T20:23:49.463Z,3.36
2023-01-23T20:26:19.185Z,3.58
2023-01-23T20:28:49.691Z,3.48
2023-01-23T20:31:18.460Z,3.45
2023-01-23T20:33:46.788Z,3.33
2023-01-23T20:36:16.738Z,3.32
2023-01-23T20:38:45.455Z,3.25
2023-01-23T20:41:15.674Z,3.34
2023-01-23T20:43:44.020Z,3.26
2023-01-23T20:46:16.783Z,3.20
2023-01-23T20:48:45.964Z,3.26
2023-01-23T20:51:17.144Z,3.26
2023-01-23T20:53:46.332Z,3.37
2023-01-23T20:56:16.324Z,3.38
2023-01-23T20:59:03.805Z,3.29
2023-01-23T21:01:54.535Z,3.31
2023-01-23T21:04:24.152Z,3.24
2023-01-23T21:06:53.392Z,3.28
2023-01-23T21:09:24.794Z,3.31
2023-01-23T21:11:54.088Z,3.37
2023-01-23T21:14:23.209Z,3.32
2023-01-23T21:16:51.386Z,3.31
2023-01-23T21:19:19.841Z,3.43
2023-01-23T21:21:47.995Z,3.64
2023-01-23T21:24:17.533Z,3.28
2023-01-23T21:26:45.656Z,3.32
2023-01-23T21:29:13.836Z,3.27
2023-01-23T21:31:42.944Z,3.42
2023-01-23T21:34:12.651Z,3.36
2023-01-23T21:36:42.261Z,3.49
2023-01-23T21:39:13.684Z,3.28
2023-01-23T21:41:43.339Z,3.31
2023-01-23T21:44:11.756Z,3.47
2023-01-23T21:46:40.018Z,3.50
2023-01-23T21:49:08.332Z,3.28
2023-01-23T21:51:36.653Z,3.43
2023-01-23T21:54:04.997Z,3.26
2023-01-23T21:56:32.950Z,3.18
2023-01-23T21:59:02.225Z,3.21
2023-01-23T22:01:42.492Z,3.19
2023-01-23T22:04:12.712Z,3.64
2023-01-23T22:06:42.276Z,3.73
2023-01-23T22:09:11.688Z,3.65
2023-01-23T22:11:39.796Z,3.55
2023-01-23T22:14:09.347Z,3.56
2023-01-23T22:16:47.951Z,3.75
2023-01-23T22:19:17.574Z,3.45
2023-01-23T22:21:46.785Z,3.44
2023-01-23T22:24:15.054Z,3.68
2023-01-23T22:26:43.382Z,3.49
2023-01-23T22:29:14.838Z,3.52
2023-01-23T22:31:43.101Z,3.53
2023-01-23T22:34:11.089Z,3.44
2023-01-23T22:36:39.101Z,3.37
2023-01-23T22:39:06.982Z,3.16
2023-01-23T22:41:34.955Z,3.20
2023-01-23T22:44:02.781Z,3.16
2023-01-23T22:46:32.625Z,3.29
2023-01-23T22:49:00.620Z,3.28
2023-01-23T22:51:28.849Z,3.21
2023-01-23T22:53:58.290Z,3.55
2023-01-23T22:56:28.470Z,3.13
2023-01-23T22:59:01.051Z,3.30
2023-01-23T23:01:28.966Z,3.43
2023-01-23T23:03:59.249Z,3.12
2023-01-23T23:06:27.653Z,3.43
2023-01-23T23:08:55.901Z,3.31
2023-01-23T23:11:25.106Z,3.31
2023-01-23T23:13:53.326Z,3.44
2023-01-23T23:16:23.226Z,3.43
2023-01-23T23:18:53.151Z,3.37
2023-01-23T23:21:24.510Z,3.14
2023-01-23T23:23:52.594Z,3.17
2023-01-23T23:26:20.706Z,3.39
2023-01-23T23:28:48.578Z,3.19
2023-01-23T23:31:16.486Z,3.30
2023-01-23T23:33:44.354Z,3.28
2023-01-23T23:36:14.641Z,3.43
2023-01-23T23:38:43.848Z,3.44
2023-01-23T23:41:14.658Z,3.32
2023-01-23T23:43:43.625Z,3.40
2023-01-23T23:46:13.270Z,3.46
2023-01-23T23:48:41.717Z,3.62
2023-01-23T23:51:12.981Z,3.48
2023-01-23T23:53:41.931Z,3.50
2023-01-23T23:56:19.917Z,3.59
2023-01-23T23:58:47.766Z,3.45
